Time;durP1;ratioP1;P1;durP2;ratioP2;P2;SDS_P1;SDS_P2;PMS_P1;PMS_P2;Temp;Humidity;BMP_temperature;BMP_pressure;BME280_temperature;BME280_humidity;BME280_pressure;Samples;Min_cycle;Max_cycle;Signal;HPM_P1;HPM_P2
2021/01/27 09:52:55;;;;;;;9.80;7.80;;;19.80;41.10;;;;;;5791167;23;20257;31
2021/01/27 09:59:05;;;;;;;7.78;6.95;;;21.50;36.60;;;;;;5025784;23;20122;-92
2021/01/27 10:01:43;;;;;;;8.73;6.68;;;22.30;34.10;;;;;;4959852;28;20039;-92
2021/01/27 10:04:16;;;;;;;7.95;6.90;;;23.80;35.10;;;;;;4959630;28;20368;-95
2021/01/27 10:06:49;;;;;;;6.40;5.60;;;24.90;33.70;;;;;;4960211;28;20043;-94
2021/01/27 10:09:27;;;;;;;10.15;6.63;;;25.50;29.90;;;;;;4952501;28;20056;-95
2021/01/27 10:12:07;;;;;;;;;;;25.80;31.70;;;;;;4943835;28;20023;-93
2021/01/27 10:14:35;;;;;;;6.40;5.75;;;26.50;30.60;;;;;;4939074;28;19950;-93
2021/01/27 10:17:05;;;;;;;6.30;5.70;;;27.20;30.00;;;;;;4934212;28;20034;-93
2021/01/27 10:19:34;;;;;;;7.10;5.85;;;26.50;30.10;;;;;;4951432;28;20031;-93
2021/01/27 10:22:07;;;;;;;6.75;5.85;;;27.60;30.10;;;;;;4962810;28;20102;-95
2021/01/27 10:24:54;;;;;;;6.57;5.70;;;24.30;32.20;;;;;;4963778;28;20590;-93
2021/01/27 10:27:32;;;;;;;6.80;6.10;;;20.50;35.20;;;;;;4953278;28;20046;-93
2021/01/27 10:29:59;;;;;;;7.03;6.20;;;22.50;32.70;;;;;;4954997;28;20106;-92
2021/01/27 10:33:19;;;;;;;6.95;5.88;;;23.20;34.30;;;;;;4947560;28;20063;-92
2021/01/27 10:35:45;;;;;;;9.13;6.18;;;24.50;31.40;;;;;;4960705;28;20026;-95
2021/01/27 10:38:17;;;;;;;6.95;6.00;;;20.50;34.90;;;;;;4939687;28;20034;-94
2021/01/27 10:41:23;;;;;;;7.20;5.95;;;21.40;34.30;;;;;;4940630;28;20061;-95
2021/01/27 10:44:16;;;;;;;12.68;6.43;;;18.50;39.00;;;;;;4902687;29;20033;-92
2021/01/27 11:48:39;;;;;;;7.40;5.35;;;18.10;35.10;;;;;;4958083;29;20055;-91
2021/01/27 11:51:30;;;;;;;6.88;5.18;;;17.80;34.80;;;;;;4940751;29;20039;-91
2021/01/27 12:04:16;;;;;;;6.45;5.00;;;16.50;38.00;;;;;;4898433;29;20052;-93
2021/01/27 12:06:45;;;;;;;4.60;4.10;;;16.80;38.30;;;;;;4870220;29;20032;-91
2021/01/27 12:09:10;;;;;;;5.32;4.57;;;17.20;34.70;;;;;;4845071;29;20041;-93
2021/01/27 12:11:36;;;;;;;6.55;4.65;;;17.00;35.60;;;;;;4861110;29;20076;-93
2021/01/27 12:14:02;;;;;;;5.07;4.45;;;16.90;37.40;;;;;;4846858;29;20108;-92
2021/01/27 12:16:27;;;;;;;5.90;4.88;;;16.90;41.50;;;;;;4862619;29;20024;-92
2021/01/27 12:18:53;;;;;;;5.32;4.70;;;17.90;40.60;;;;;;4874772;29;20363;-91
2021/01/27 12:21:19;;;;;;;6.18;5.35;;;18.80;35.60;;;;;;4844213;29;20041;-91
2021/01/27 12:23:44;;;;;;;6.88;4.47;;;19.20;36.50;;;;;;4879853;29;20571;-90
2021/01/27 12:26:10;;;;;;;5.38;4.88;;;19.40;32.80;;;;;;4849107;29;20125;-94
2021/01/27 12:28:37;;;;;;;5.18;4.15;;;19.90;36.60;;;;;;4847182;29;20051;-93
2021/01/27 12:31:04;;;;;;;4.72;4.25;;;19.80;34.10;;;;;;4863885;29;20132;-90
2021/01/27 12:33:30;;;;;;;6.90;4.95;;;19.50;34.20;;;;;;4862276;29;20039;-94
2021/01/27 12:35:56;;;;;;;4.93;4.43;;;18.70;34.50;;;;;;4872697;29;20029;-94
2021/01/27 12:38:22;;;;;;;5.43;4.70;;;18.80;37.40;;;;;;4880967;29;21582;-94
2021/01/27 12:40:48;;;;;;;5.05;4.35;;;18.90;35.30;;;;;;4857006;29;20033;-93
2021/01/27 12:43:14;;;;;;;4.60;4.20;;;18.60;35.60;;;;;;4838883;29;20536;-93
2021/01/27 12:45:40;;;;;;;5.88;4.15;;;18.30;35.60;;;;;;4837436;29;20037;-91
2021/01/27 12:48:06;;;;;;;5.35;4.30;;;18.30;35.30;;;;;;4861945;29;20117;-94
2021/01/27 12:50:31;;;;;;;5.75;4.15;;;17.90;33.50;;;;;;4877901;29;20037;-93
2021/01/27 12:52:57;;;;;;;6.72;4.50;;;16.90;35.20;;;;;;4848069;29;20037;-92
2021/01/27 12:55:23;;;;;;;4.78;4.28;;;15.90;38.10;;;;;;4855125;29;20045;-93
2021/01/27 12:57:49;;;;;;;4.90;4.33;;;15.20;38.70;;;;;;4850686;29;20815;-92
2021/01/27 13:00:23;;;;;;;5.53;4.38;;;15.00;40.30;;;;;;4851776;29;20056;-93
2021/01/27 13:02:54;;;;;;;7.07;4.40;;;14.70;41.40;;;;;;4878220;29;20033;-93
2021/01/27 13:05:22;;;;;;;6.10;3.90;;;14.40;42.30;;;;;;4876855;29;20041;-91
2021/01/27 13:07:48;;;;;;;7.72;5.68;;;14.50;42.30;;;;;;4858453;29;20036;-89
2021/01/27 13:10:15;;;;;;;8.23;5.30;;;14.60;42.40;;;;;;4889511;29;20040;-92
2021/01/27 13:12:42;;;;;;;6.95;4.40;;;14.60;41.50;;;;;;4882368;29;20035;-92
2021/01/27 13:15:12;;;;;;;7.30;4.57;;;14.50;42.40;;;;;;4901433;29;20048;-93
2021/01/27 13:17:39;;;;;;;5.57;4.32;;;14.10;39.70;;;;;;4881857;29;20028;-93
2021/01/27 13:20:09;;;;;;;5.32;4.10;;;14.10;40.20;;;;;;4875434;29;20367;-92
2021/01/27 13:22:39;;;;;;;4.35;3.95;;;14.30;40.70;;;;;;4908290;29;20048;-91
2021/01/27 13:25:24;;;;;;;5.80;4.30;;;14.00;40.20;;;;;;4900406;29;20093;-94
2021/01/27 13:27:51;;;;;;;6.75;5.05;;;13.70;41.00;;;;;;4916975;29;20040;-93
2021/01/27 13:30:29;;;;;;;5.67;4.17;;;13.20;41.30;;;;;;4916618;29;20032;-94
2021/01/27 13:33:02;;;;;;;8.63;4.32;;;12.90;42.30;;;;;;4908126;29;20017;-94
2021/01/27 13:35:53;;;;;;;7.25;4.38;;;12.60;43.50;;;;;;4925893;29;20044;-94
